createdAt,value
2022-09-02T00:00:54.295Z,1.35
2022-09-02T00:03:21.282Z,1.48
2022-09-02T00:05:48.166Z,1.63
2022-09-02T00:08:14.752Z,1.40
2022-09-02T00:10:43.683Z,1.67
2022-09-02T00:13:12.257Z,1.35
2022-09-02T00:15:39.344Z,1.50
2022-09-02T00:18:06.937Z,1.42
2022-09-02T00:20:43.422Z,1.42
2022-09-02T00:23:10.672Z,1.30
2022-09-02T00:25:38.711Z,1.70
2022-09-02T00:28:06.646Z,1.30
2022-09-02T00:30:35.331Z,1.48
2022-09-02T00:33:02.549Z,1.60
2022-09-02T00:35:29.553Z,1.48
2022-09-02T00:37:56.167Z,1.35
2022-09-02T00:40:23.650Z,1.58
2022-09-02T00:42:51.112Z,1.20
2022-09-02T00:45:18.669Z,1.38
2022-09-02T00:47:50.576Z,1.15
2022-09-02T00:50:19.955Z,1.30
2022-09-02T00:52:50.815Z,1.17
2022-09-02T00:55:24.443Z,1.13
2022-09-02T00:57:57.543Z,1.20
2022-09-02T01:00:27.255Z,1.35
2022-09-02T01:03:06.627Z,1.10
2022-09-02T01:05:39.540Z,1.10
2022-09-02T01:08:09.733Z,1.20
2022-09-02T01:10:36.620Z,1.38
2022-09-02T01:13:08.563Z,1.60
2022-09-02T01:15:38.158Z,1.08
2022-09-02T01:18:08.155Z,1.10
2022-09-02T01:20:34.889Z,1.10
2022-09-02T01:23:02.445Z,1.27
2022-09-02T01:25:32.169Z,1.40
2022-09-02T01:28:01.419Z,1.80
2022-09-02T01:30:28.160Z,1.60
2022-09-02T01:32:55.597Z,1.33
2022-09-02T01:35:22.817Z,1.40
2022-09-02T01:37:54.830Z,1.27
2022-09-02T01:40:24.626Z,1.10
2022-09-02T01:42:55.238Z,1.38
2022-09-02T01:45:22.277Z,1.20
2022-09-02T01:47:49.235Z,1.05
2022-09-02T01:50:16.186Z,1.20
2022-09-02T01:52:42.940Z,1.52
2022-09-02T01:55:09.958Z,1.17
2022-09-02T01:57:36.557Z,1.60
2022-09-02T02:00:06.426Z,1.65
2022-09-02T02:02:33.072Z,1.85
2022-09-02T02:05:00.450Z,1.50
2022-09-02T02:07:27.232Z,1.60
2022-09-02T02:09:53.772Z,1.85
2022-09-02T02:12:20.434Z,1.80
2022-09-02T02:14:47.260Z,1.83
2022-09-02T02:17:14.094Z,2.10
2022-09-02T02:19:41.171Z,2.00
2022-09-02T02:22:07.841Z,1.90
2022-09-02T02:24:34.508Z,1.80
2022-09-02T02:27:01.171Z,1.95
2022-09-02T02:29:27.979Z,1.65
2022-09-02T02:31:54.541Z,1.73
2022-09-02T02:34:21.507Z,1.95
2022-09-02T02:36:48.146Z,1.63
2022-09-02T02:39:14.757Z,1.77
2022-09-02T02:41:44.905Z,2.05
2022-09-02T02:44:11.790Z,1.40
2022-09-02T02:46:38.411Z,1.73
2022-09-02T02:49:06.292Z,2.05
2022-09-02T02:51:33.799Z,2.00
2022-09-02T02:54:01.539Z,2.10
2022-09-02T02:56:30.093Z,1.85
2022-09-02T02:59:03.401Z,1.93
2022-09-02T03:01:31.166Z,2.00
2022-09-02T03:03:57.889Z,1.65
2022-09-02T03:06:26.553Z,2.08
2022-09-02T03:08:56.169Z,1.92
2022-09-02T03:11:24.201Z,2.17
2022-09-02T03:13:51.381Z,1.80
2022-09-02T03:16:19.877Z,1.80
2022-09-02T03:18:48.140Z,1.73
2022-09-02T03:21:15.974Z,1.85
2022-09-02T03:23:43.887Z,1.63
2022-09-02T03:26:18.850Z,2.13
2022-09-02T03:28:47.630Z,1.80
2022-09-02T03:31:20.776Z,1.58
2022-09-02T03:33:47.565Z,1.60
2022-09-02T03:36:26.795Z,1.88
2022-09-02T03:38:53.679Z,1.67
2022-09-02T03:41:20.439Z,1.63
2022-09-02T03:43:47.316Z,1.65
2022-09-02T03:46:14.251Z,1.40
2022-09-02T03:48:41.002Z,1.42
2022-09-02T03:51:07.994Z,1.70
2022-09-02T03:53:34.977Z,1.70
2022-09-02T03:56:06.712Z,1.80
2022-09-02T03:58:34.494Z,1.73
2022-09-02T04:01:01.278Z,1.33
2022-09-02T04:03:28.016Z,1.58
2022-09-02T04:05:54.617Z,1.50
2022-09-02T04:08:21.456Z,1.73
2022-09-02T04:10:48.086Z,1.20
2022-09-02T04:13:15.057Z,1.20
2022-09-02T04:15:44.759Z,1.50
2022-09-02T04:18:12.102Z,1.30
2022-09-02T04:20:39.692Z,1.48
2022-09-02T04:23:06.694Z,1.30
2022-09-02T04:25:33.682Z,1.48
2022-09-02T04:28:00.415Z,1.15
2022-09-02T04:30:27.121Z,1.50
2022-09-02T04:32:53.865Z,1.73
2022-09-02T04:35:21.312Z,1.73
2022-09-02T04:37:49.425Z,1.63
2022-09-02T04:40:17.652Z,1.70
2022-09-02T04:42:44.889Z,1.52
2022-09-02T04:45:11.813Z,1.55
2022-09-02T04:47:39.245Z,1.80
2022-09-02T04:50:06.407Z,1.52
2022-09-02T04:52:33.100Z,1.30
2022-09-02T04:54:59.656Z,1.40
2022-09-02T04:57:26.587Z,1.63
2022-09-02T04:59:53.867Z,1.45
2022-09-02T05:02:20.705Z,1.52
2022-09-02T05:04:47.366Z,1.80
2022-09-02T05:07:14.287Z,1.75
2022-09-02T05:09:40.844Z,1.83
2022-09-02T05:12:07.619Z,1.70
2022-09-02T05:14:34.230Z,1.67
2022-09-02T05:17:07.313Z,1.55
2022-09-02T05:19:34.863Z,1.42
2022-09-02T05:22:01.955Z,1.92
2022-09-02T05:24:29.639Z,1.50
2022-09-02T05:26:56.366Z,1.63
2022-09-02T05:29:23.925Z,3.03
2022-09-02T05:31:50.674Z,1.70
2022-09-02T05:34:18.417Z,1.40
2022-09-02T05:36:45.357Z,1.45
2022-09-02T05:39:11.947Z,1.42
2022-09-02T05:41:38.567Z,1.35
2022-09-02T05:44:09.830Z,1.33
2022-09-02T05:46:39.593Z,1.15
2022-09-02T05:49:06.598Z,1.35
2022-09-02T05:51:44.449Z,1.27
2022-09-02T05:54:15.200Z,1.40
2022-09-02T05:56:59.113Z,1.40
2022-09-02T05:59:27.869Z,1.30
2022-09-02T06:01:54.900Z,1.20
2022-09-02T06:04:22.703Z,1.27
2022-09-02T06:06:50.525Z,1.17
2022-09-02T06:09:19.721Z,1.17
2022-09-02T06:11:49.485Z,1.30
2022-09-02T06:14:18.939Z,1.23
2022-09-02T06:19:16.433Z,1.25
2022-09-02T06:21:46.663Z,1.25
2022-09-02T06:24:13.736Z,1.20
2022-09-02T06:26:41.265Z,1.15
2022-09-02T06:29:08.929Z,1.30
2022-09-02T06:31:35.571Z,1.27
2022-09-02T06:34:03.741Z,1.30
2022-09-02T06:36:31.452Z,1.30
2022-09-02T06:38:59.229Z,1.15
2022-09-02T06:41:28.755Z,1.13
2022-09-02T06:43:57.526Z,1.27
2022-09-02T06:46:30.913Z,1.13
2022-09-02T06:48:57.946Z,1.17
2022-09-02T06:51:30.575Z,1.00
2022-09-02T06:53:57.684Z,1.17
2022-09-02T06:56:26.715Z,1.30
2022-09-02T06:58:53.709Z,1.27
2022-09-02T07:01:23.817Z,1.25
2022-09-02T07:04:09.103Z,1.40
2022-09-02T07:06:38.801Z,1.20
2022-09-02T07:09:07.190Z,1.40
2022-09-02T07:11:34.009Z,1.40
2022-09-02T07:14:01.814Z,1.40
2022-09-02T07:16:30.791Z,1.38
2022-09-02T07:18:58.208Z,1.38
2022-09-02T07:21:24.729Z,1.60
2022-09-02T07:23:51.387Z,1.23
2022-09-02T07:26:18.538Z,1.67
2022-09-02T07:28:47.096Z,1.65
2022-09-02T07:31:16.128Z,1.65
2022-09-02T07:33:45.123Z,1.70
2022-09-02T07:36:16.716Z,1.35
2022-09-02T07:38:43.445Z,1.40
2022-09-02T07:41:10.749Z,1.33
2022-09-02T07:43:38.289Z,1.40
2022-09-02T07:46:05.902Z,1.50
2022-09-02T07:48:33.860Z,1.25
2022-09-02T07:51:01.137Z,1.50
2022-09-02T07:53:27.833Z,1.33
2022-09-02T07:55:55.016Z,1.30
2022-09-02T07:58:22.693Z,1.40
2022-09-02T08:00:50.557Z,1.58
2022-09-02T08:03:17.936Z,1.33
2022-09-02T08:05:47.216Z,1.40
2022-09-02T08:08:15.921Z,1.10
2022-09-02T08:10:43.264Z,1.13
2022-09-02T08:13:10.627Z,1.25
2022-09-02T08:15:38.031Z,1.30
2022-09-02T08:18:05.632Z,1.30
2022-09-02T08:21:04.200Z,1.45
2022-09-02T08:23:37.129Z,1.10
2022-09-02T08:26:05.600Z,1.10
2022-09-02T08:28:32.527Z,1.13
2022-09-02T08:30:59.404Z,0.85
2022-09-02T08:33:26.419Z,0.90
2022-09-02T08:35:53.625Z,1.17
2022-09-02T08:38:22.102Z,1.05
2022-09-02T08:40:49.725Z,0.98
2022-09-02T08:43:39.874Z,0.80
2022-09-02T08:46:09.279Z,0.88
2022-09-02T08:48:53.096Z,1.00
2022-09-02T08:51:33.862Z,0.70
2022-09-02T08:54:20.943Z,0.80
2022-09-02T08:56:48.723Z,0.80
2022-09-02T08:59:23.215Z,0.80
2022-09-02T09:02:26.992Z,0.80
2022-09-02T09:05:09.463Z,0.90
2022-09-02T09:07:47.948Z,0.80
2022-09-02T09:10:33.233Z,0.85
2022-09-02T09:13:47.349Z,0.77
2022-09-02T09:16:37.399Z,0.60
2022-09-02T09:19:10.879Z,0.80
2022-09-02T09:21:37.522Z,0.80
2022-09-02T09:24:18.889Z,0.50
2022-09-02T09:26:47.502Z,0.73
2022-09-02T09:29:14.244Z,0.52
2022-09-02T09:31:41.475Z,0.55
2022-09-02T09:34:09.995Z,0.70
2022-09-02T09:36:39.763Z,0.80
2022-09-02T09:39:29.763Z,0.80
2022-09-02T09:42:02.980Z,0.80
2022-09-02T09:44:38.634Z,0.60
2022-09-02T09:47:15.957Z,0.90
2022-09-02T09:49:44.442Z,0.60
2022-09-02T09:52:11.006Z,0.60
2022-09-02T09:54:37.587Z,0.73
2022-09-02T09:57:21.648Z,0.70
2022-09-02T09:59:49.981Z,0.63
2022-09-02T10:02:25.022Z,0.73
2022-09-02T10:05:10.874Z,0.80
2022-09-02T10:07:45.067Z,0.90
2022-09-02T10:10:17.386Z,0.57
2022-09-02T10:12:44.662Z,0.80
2022-09-02T10:15:12.563Z,0.68
2022-09-02T10:17:55.814Z,0.60
2022-09-02T10:20:26.622Z,0.70
2022-09-02T10:23:12.957Z,0.60
2022-09-02T10:25:43.096Z,0.63
2022-09-02T10:28:27.810Z,0.60
2022-09-02T10:31:16.112Z,0.60
2022-09-02T10:33:57.378Z,0.60
2022-09-02T10:36:29.831Z,0.80
2022-09-02T10:39:04.545Z,0.80
2022-09-02T10:44:22.204Z,0.80
2022-09-02T10:47:01.698Z,0.60
2022-09-02T10:49:37.321Z,0.52
2022-09-02T10:52:13.421Z,0.60
2022-09-02T10:54:42.979Z,0.70
2022-09-02T10:57:15.862Z,0.70
2022-09-02T11:00:06.899Z,0.80
2022-09-02T11:03:04.320Z,0.70
2022-09-02T11:05:49.530Z,0.60
2022-09-02T11:08:29.642Z,0.80
2022-09-02T11:11:06.278Z,0.60
2022-09-02T11:14:02.248Z,0.60
2022-09-02T11:16:41.425Z,0.60
2022-09-02T11:19:15.088Z,0.50
2022-09-02T11:22:04.026Z,0.68
2022-09-02T11:24:34.834Z,0.65
2022-09-02T11:27:20.204Z,0.77
2022-09-02T11:30:06.389Z,0.77
2022-09-02T11:33:03.403Z,0.70
2022-09-02T11:35:37.812Z,0.73
2022-09-02T11:38:29.539Z,0.70
2022-09-02T11:44:05.764Z,0.60
2022-09-02T11:46:38.292Z,0.63
2022-09-02T11:49:17.429Z,0.65
2022-09-02T11:52:12.179Z,0.65
2022-09-02T11:54:41.806Z,0.70
2022-09-02T11:57:12.064Z,0.70
2022-09-02T11:59:50.828Z,0.60
2022-09-02T12:02:38.900Z,0.73
2022-09-02T12:05:30.562Z,0.77
2022-09-02T12:08:00.658Z,0.70
2022-09-02T12:10:49.967Z,0.65
2022-09-02T12:13:41.558Z,0.80
2022-09-02T12:16:19.505Z,1.02
2022-09-02T12:19:08.949Z,0.73
2022-09-02T12:21:38.906Z,1.00
2022-09-02T12:24:09.175Z,1.17
2022-09-02T12:26:38.736Z,1.20
2022-09-02T12:29:30.760Z,1.10
2022-09-02T12:31:57.380Z,1.10
2022-09-02T12:34:23.819Z,1.10
2022-09-02T12:37:11.485Z,1.00
2022-09-02T12:39:41.111Z,1.10
2022-09-02T12:42:07.618Z,1.00
2022-09-02T12:44:53.318Z,1.23
2022-09-02T12:47:19.900Z,1.30
2022-09-02T12:49:52.353Z,1.10
2022-09-02T12:52:34.312Z,1.10
2022-09-02T12:55:21.260Z,1.10
2022-09-02T12:57:51.661Z,1.23
2022-09-02T13:00:54.941Z,1.10
2022-09-02T13:03:29.001Z,1.00
2022-09-02T13:06:28.061Z,1.00
2022-09-02T13:09:10.395Z,1.00
2022-09-02T13:11:51.288Z,1.00
2022-09-02T13:14:23.923Z,0.80
2022-09-02T13:16:53.357Z,0.90
2022-09-02T13:19:53.287Z,1.10
2022-09-02T13:22:31.237Z,1.02
2022-09-02T13:25:04.099Z,1.17
2022-09-02T13:27:30.831Z,0.95
2022-09-02T13:30:31.842Z,0.88
2022-09-02T13:33:16.522Z,1.08
2022-09-02T13:35:43.719Z,1.10
2022-09-02T13:38:12.037Z,0.98
2022-09-02T13:40:39.924Z,0.90
2022-09-02T13:43:15.745Z,1.00
2022-09-02T13:45:42.906Z,1.00
2022-09-02T13:48:21.219Z,0.98
2022-09-02T13:50:49.515Z,1.08
2022-09-02T13:53:45.493Z,1.17
2022-09-02T13:56:14.005Z,0.90
2022-09-02T13:58:56.918Z,1.10
2022-09-02T14:01:35.003Z,1.00
2022-09-02T14:06:39.792Z,1.10
2022-09-02T14:09:11.573Z,0.93
2022-09-02T14:11:48.564Z,0.93
2022-09-02T14:14:21.675Z,1.00
2022-09-02T14:16:48.378Z,1.00
2022-09-02T14:19:15.326Z,1.23
2022-09-02T14:21:57.482Z,1.10
2022-09-02T14:24:29.144Z,1.05
2022-09-02T14:26:57.498Z,0.82
2022-09-02T14:29:24.900Z,1.00
2022-09-02T14:32:21.672Z,1.07
2022-09-02T14:34:48.942Z,1.00
2022-09-02T14:37:27.048Z,0.93
2022-09-02T14:42:21.350Z,1.10
2022-09-02T14:44:47.905Z,1.00
2022-09-02T14:47:15.764Z,1.00
2022-09-02T14:49:53.276Z,1.10
2022-09-02T14:52:22.796Z,0.82
2022-09-02T14:54:51.681Z,0.90
2022-09-02T14:57:21.194Z,1.02
2022-09-02T14:59:48.753Z,1.10
2022-09-02T15:02:32.846Z,0.93
2022-09-02T15:05:01.698Z,0.80
2022-09-02T15:07:28.594Z,0.90
2022-09-02T15:09:55.191Z,1.33
2022-09-02T15:12:24.810Z,1.00
2022-09-02T15:14:52.345Z,0.90
2022-09-02T15:17:19.566Z,1.10
2022-09-02T15:19:46.486Z,0.95
2022-09-02T15:22:14.015Z,1.00
2022-09-02T15:24:41.906Z,0.85
2022-09-02T15:27:08.440Z,1.00
2022-09-02T15:29:34.998Z,0.90
2022-09-02T15:32:03.993Z,1.00
2022-09-02T15:34:31.457Z,0.80
2022-09-02T15:36:58.517Z,0.93
2022-09-02T15:39:26.163Z,0.90
2022-09-02T15:41:55.377Z,0.90
2022-09-02T15:44:26.226Z,0.90
2022-09-02T15:46:53.622Z,0.90
2022-09-02T15:49:21.227Z,0.98
2022-09-02T15:51:49.738Z,1.20
2022-09-02T15:54:18.042Z,1.02
2022-09-02T15:56:46.159Z,1.02
2022-09-02T15:59:14.229Z,0.93
2022-09-02T16:01:43.570Z,1.03
2022-09-02T16:04:11.089Z,0.73
2022-09-02T16:06:39.785Z,0.93
2022-09-02T16:09:11.015Z,1.00
2022-09-02T16:11:41.297Z,0.82
2022-09-02T16:14:08.115Z,0.90
2022-09-02T16:16:35.934Z,0.80
2022-09-02T16:19:04.533Z,1.00
2022-09-02T16:21:31.470Z,1.08
2022-09-02T16:23:58.014Z,1.15
2022-09-02T16:26:24.550Z,0.95
2022-09-02T16:28:55.882Z,1.10
2022-09-02T16:31:24.358Z,0.80
2022-09-02T16:33:56.441Z,1.10
2022-09-02T16:36:24.281Z,0.90
2022-09-02T16:38:53.436Z,0.88
2022-09-02T16:41:37.673Z,0.90
2022-09-02T16:44:07.073Z,0.90
2022-09-02T16:46:34.778Z,0.80
2022-09-02T16:49:01.374Z,1.08
2022-09-02T16:51:30.047Z,1.10
2022-09-02T16:53:58.508Z,0.95
2022-09-02T16:56:26.244Z,0.82
2022-09-02T16:58:53.730Z,1.00
2022-09-02T17:01:22.201Z,1.00
2022-09-02T17:03:50.688Z,0.80
2022-09-02T17:06:17.827Z,0.98
2022-09-02T17:08:46.824Z,0.88
2022-09-02T17:11:29.761Z,0.90
2022-09-02T17:13:59.295Z,0.90
2022-09-02T17:16:34.587Z,0.82
2022-09-02T17:19:02.446Z,1.02
2022-09-02T17:21:48.693Z,0.90
2022-09-02T17:24:15.742Z,1.00
2022-09-02T17:26:48.255Z,0.93
2022-09-02T17:29:47.042Z,0.80
2022-09-02T17:32:04.732Z,0.90
2022-09-02T17:34:33.778Z,0.88
2022-09-02T17:37:00.605Z,0.70
2022-09-02T17:39:27.381Z,0.85
2022-09-02T17:41:59.768Z,0.90
2022-09-02T17:44:35.873Z,0.82
2022-09-02T17:47:06.370Z,0.77
2022-09-02T17:49:36.584Z,1.30
2022-09-02T17:52:09.061Z,0.88
2022-09-02T17:54:37.166Z,0.90
2022-09-02T17:57:48.320Z,0.80
2022-09-02T18:00:22.334Z,0.80
2022-09-02T18:03:13.270Z,0.80
2022-09-02T18:05:44.191Z,1.05
2022-09-02T18:08:29.157Z,0.90
2022-09-02T18:11:04.424Z,0.90
2022-09-02T18:13:59.147Z,0.80
2022-09-02T18:16:33.514Z,0.80
2022-09-02T18:19:13.099Z,0.95
2022-09-02T18:21:58.859Z,0.90
2022-09-02T18:24:26.050Z,0.80
2022-09-02T18:27:30.975Z,0.77
2022-09-02T18:30:18.099Z,0.80
2022-09-02T18:33:05.451Z,0.80
2022-09-02T18:35:37.705Z,0.90
2022-09-02T18:38:20.227Z,0.90
2022-09-02T18:41:05.827Z,0.90
2022-09-02T18:44:09.373Z,0.90
2022-09-02T18:46:48.441Z,0.85
2022-09-02T18:49:15.570Z,0.80
2022-09-02T18:51:43.868Z,0.70
2022-09-02T18:54:15.370Z,0.82
2022-09-02T18:56:49.612Z,0.80
2022-09-02T18:59:28.553Z,0.90
2022-09-02T19:04:29.387Z,0.90
2022-09-02T19:07:16.712Z,0.90
2022-09-02T19:09:43.641Z,0.95
2022-09-02T19:12:10.949Z,0.70
2022-09-02T19:14:40.498Z,1.00
2022-09-02T19:17:09.096Z,0.80
2022-09-02T19:19:35.802Z,0.80
2022-09-02T19:22:06.496Z,0.80
2022-09-02T19:24:51.062Z,0.77
2022-09-02T19:27:19.991Z,0.60
2022-09-02T19:29:52.838Z,0.93
2022-09-02T19:32:24.724Z,0.80
2022-09-02T19:34:51.313Z,1.00
2022-09-02T19:37:17.884Z,1.00
2022-09-02T19:39:44.470Z,0.75
2022-09-02T19:42:11.088Z,1.10
2022-09-02T19:44:38.931Z,0.90
2022-09-02T19:47:50.190Z,1.00
2022-09-02T19:49:52.237Z,0.90
2022-09-02T19:52:20.845Z,0.90
2022-09-02T19:54:47.388Z,1.15
2022-09-02T19:57:13.990Z,0.75
2022-09-02T19:59:40.602Z,0.80
2022-09-02T20:02:07.286Z,0.80
2022-09-02T20:04:34.685Z,0.98
2022-09-02T20:07:02.066Z,0.80
2022-09-02T20:09:29.386Z,0.90
2022-09-02T20:11:56.166Z,1.00
2022-09-02T20:14:22.988Z,0.82
2022-09-02T20:16:54.200Z,0.98
2022-09-02T20:19:21.471Z,0.80
2022-09-02T20:21:49.368Z,0.80
2022-09-02T20:24:24.481Z,0.80
2022-09-02T20:27:33.906Z,0.90
2022-09-02T20:30:10.497Z,1.08
2022-09-02T20:32:57.581Z,0.90
2022-09-02T20:35:36.587Z,0.90
2022-09-02T20:38:28.938Z,0.75
2022-09-02T20:41:38.002Z,0.88
2022-09-02T20:44:20.268Z,0.90
2022-09-02T20:47:07.317Z,0.90
2022-09-02T20:50:03.084Z,1.10
2022-09-02T20:52:36.632Z,0.90
2022-09-02T20:55:23.151Z,0.90
2022-09-02T20:58:16.596Z,1.08
2022-09-02T21:01:01.667Z,0.80
2022-09-02T21:03:41.371Z,0.82
2022-09-02T21:06:10.918Z,1.10
2022-09-02T21:08:59.792Z,1.00
2022-09-02T21:11:32.246Z,1.20
2022-09-02T21:14:05.972Z,1.00
2022-09-02T21:16:36.953Z,1.00
2022-09-02T21:19:06.537Z,1.00
2022-09-02T21:22:10.813Z,0.90
2022-09-02T21:24:46.102Z,1.10
2022-09-02T21:27:37.798Z,0.95
2022-09-02T21:30:09.668Z,1.20
2022-09-02T21:32:56.632Z,1.23
2022-09-02T21:35:40.223Z,1.20
2022-09-02T21:38:14.475Z,1.35
2022-09-02T21:40:50.149Z,1.10
2022-09-02T21:43:34.916Z,1.05
2022-09-02T21:46:26.183Z,1.10
2022-09-02T21:48:59.160Z,1.10
2022-09-02T21:51:34.196Z,1.17
2022-09-02T21:54:39.729Z,1.20
2022-09-02T21:57:12.213Z,1.20
2022-09-02T22:00:02.682Z,1.00
2022-09-02T22:03:24.389Z,1.17
2022-09-02T22:06:07.027Z,1.27
2022-09-02T22:09:09.141Z,1.30
2022-09-02T22:11:48.052Z,1.13
2022-09-02T22:14:46.140Z,1.10
2022-09-02T22:17:30.961Z,1.20
2022-09-02T22:20:02.335Z,1.20
2022-09-02T22:22:37.060Z,1.02
2022-09-02T22:25:03.802Z,1.00
2022-09-02T22:27:43.701Z,1.10
2022-09-02T22:30:13.401Z,0.90
2022-09-02T22:32:51.410Z,1.08
2022-09-02T22:36:00.897Z,1.10
2022-09-02T22:38:33.318Z,1.35
2022-09-02T22:41:03.642Z,1.10
2022-09-02T22:43:41.616Z,1.10
2022-09-02T22:46:32.961Z,0.97
2022-09-02T22:49:22.381Z,1.10
2022-09-02T22:54:35.020Z,0.80
2022-09-02T22:57:15.421Z,0.90
2022-09-02T22:59:49.791Z,1.10
2022-09-02T23:02:22.058Z,1.35
2022-09-02T23:05:37.633Z,0.90
2022-09-02T23:08:08.117Z,1.08
2022-09-02T23:10:42.993Z,1.08
2022-09-02T23:13:24.343Z,1.00
2022-09-02T23:15:58.499Z,1.00
2022-09-02T23:18:29.747Z,1.17
2022-09-02T23:21:07.259Z,1.00
2022-09-02T23:23:53.305Z,1.17
2022-09-02T23:26:25.948Z,1.40
2022-09-02T23:28:56.500Z,1.00
2022-09-02T23:31:32.309Z,1.17
2022-09-02T23:34:28.137Z,1.13
2022-09-02T23:37:17.498Z,1.10
2022-09-02T23:39:50.268Z,1.10
2022-09-02T23:42:16.859Z,1.10
2022-09-02T23:44:44.068Z,1.20
2022-09-02T23:47:13.470Z,1.00
2022-09-02T23:52:34.149Z,1.20
2022-09-02T23:55:39.061Z,1.30
2022-09-02T23:58:05.568Z,1.02
